CheckWX is a tool to help pilots better visualize weather data.  It is not intended as a substitute for an official pre-flight weather briefing.

06:02:36 UTC

LJLJ TAF
Ljubljana Jože Pučnik Airport
Ljubljana, Slovenia
TAF LJLJ 041100Z 0412/0512 VRB02KT 9999 FEW060 TEMPO 0412/0417 12010KT TEMPO 0510/0512 12010KT

Apr-4@
12:00 UTC

Apr-4 @ 12:00 UTC

Apr-5@
12:00 UTC

Apr-5 @ 12:00 UTC

TAF LJLJ 041100Z 0412/0512 VRB02KT 9999 FEW060
Wind
  • Variable at 2 KTS
Cloud Levels
  • Few at 6,000' AGL

Apr-4@
12:00 UTC

Apr-4 @ 12:00 UTC

Apr-4@
17:00 UTC

Apr-4 @ 17:00 UTC

TEMPO 0412/0417 12010KT

Expired

Wind
  • 120° at 10 KTS
Cloud Levels

Apr-5@
10:00 UTC

Apr-5 @ 10:00 UTC

Apr-5@
12:00 UTC

Apr-5 @ 12:00 UTC

TEMPO 0510/0512 12010KT

Temporary

Temporary Changes expected for less than half the time period

Wind
  • 120° at 10 KTS
Cloud Levels